ADDS METAR Data INFO
IDs: Format: Raw Decoded Include TAF

Data at: 0252 UTC 21 Jan 2018

KAJR 210235Z AUTO 26003KT 10SM CLR 09/03 A3024 RMK AO2 T00900030
KAJR 210215Z AUTO 25003KT 10SM CLR 09/03 A3024 RMK AO2 T00930031
KAJR 210155Z AUTO 26003KT 10SM CLR 10/03 A3023 RMK AO2 T00950033
KAJR 210135Z AUTO 28003KT 10SM CLR 10/04 A3023 RMK AO2 T01020038
KAJR 210115Z AUTO 00000KT 10SM CLR 11/04 A3023 RMK AO2 T01070042
KAJR 210055Z AUTO 00000KT 10SM CLR 11/04 A3022 RMK AO2 T01120043
KAJR 210035Z AUTO 00000KT 10SM CLR 12/05 A3022 RMK AO2 T01240047
KAJR 210015Z AUTO 00000KT 10SM CLR 12/05 A3021 RMK AO2 T01210047
KAJR 202355Z AUTO 00000KT 10SM CLR 13/05 A3021 RMK AO2 T01280047 10173 20128
KAJR 202335Z AUTO 29003KT 10SM CLR 13/05 A3020 RMK AO2 T01340048
KAJR 202315Z AUTO 29004KT 10SM CLR 14/05 A3020 RMK AO2 T01350046
KAJR 202255Z AUTO 30003KT 10SM CLR 14/05 A3019 RMK AO2 T01410046
KAJR 202235Z AUTO 31004KT 10SM CLR 15/05 A3019 RMK AO2 T01510045
KAJR 202215Z AUTO 30006KT 10SM CLR 16/04 A3019 RMK AO2 T01570042
KAJR 202155Z AUTO 30005KT 10SM CLR 16/04 A3018 RMK AO2 T01600041
KAJR 202135Z AUTO 28008KT 10SM CLR 16/04 A3018 RMK AO2 T01640040
KAJR 202115Z AUTO 30007KT 10SM CLR 17/04 A3018 RMK AO2 T01670040
KAJR 202055Z AUTO 31011G17KT 10SM CLR 17/04 A3017 RMK AO2 T01670038
KAJR 202035Z AUTO 30008KT 270V330 10SM CLR 17/04 A3017 RMK AO2 T01660038
KAJR 202015Z AUTO 31006G15KT 10SM CLR 17/04 A3018 RMK AO2 T01720040
KAJR 201955Z AUTO 33009KT 10SM CLR 17/04 A3017 RMK AO2 T01700038
KAJR 201935Z AUTO 32008G14KT 10SM CLR 17/03 A3017 RMK AO2 T01650033
KAJR 201915Z AUTO 29008G16KT 10SM CLR 16/04 A3017 RMK AO2 T01640035
KAJR 201855Z AUTO 33011G14KT 290V350 10SM CLR 16/03 A3017 RMK AO2 T01620033
KAJR 201835Z AUTO 32011G19KT 10SM CLR 16/03 A3018 RMK AO2 T01570031
KAJR 201815Z AUTO 29009G16KT 10SM CLR 16/03 A3019 RMK AO2 T01580032
KAJR 201755Z AUTO 34011G15KT 10SM CLR 16/03 A3019 RMK AO2 T01560034 10156 20031
KAJR 201735Z AUTO 32010G17KT 10SM CLR 15/03 A3020 RMK AO2 T01540033
KAJR 201715Z AUTO 30011G19KT 10SM CLR 15/03 A3021 RMK AO2 T01490033
KAJR 201655Z AUTO 34010G15KT 300V020 10SM CLR 15/03 A3022 RMK AO2 T01460031
KAJR 201635Z AUTO 34014G21KT 10SM CLR 14/03 A3021 RMK AO2 T01390031
KAJR 201615Z AUTO 34012G24KT 10SM CLR 13/03 A3022 RMK AO2 T01330031
KAJR 201555Z AUTO 33015G25KT 10SM CLR 13/03 A3022 RMK AO2 T01280031
KAJR 201535Z AUTO 34013G22KT 10SM CLR 13/03 A3022 RMK AO2 T01250032
KAJR 201515Z AUTO 32012G22KT 10SM CLR 12/03 A3022 RMK AO2 T01160033
KAJR 201455Z AUTO 34013G17KT 10SM CLR 11/03 A3021 RMK AO2 T01100033
KAJR 201435Z AUTO 34014G19KT 10SM CLR 10/03 A3021 RMK AO2 T01030033
KAJR 201415Z AUTO 34012G17KT 300V010 10SM CLR 09/03 A3020 RMK AO2 T00940031
KAJR 201355Z AUTO 33009G17KT 10SM CLR 09/03 A3020 RMK AO2 T00850027
KAJR 201335Z AUTO 33010G16KT 10SM CLR 07/02 A3020 RMK AO2 T00660019
KAJR 201315Z AUTO 31006KT 10SM CLR 04/00 A3020 RMK AO2 T00420001
KAJR 201255Z AUTO 29004KT 10SM CLR 04/00 A3020 RMK AO2 T00361003
KAJR 201235Z AUTO 30003KT 10SM CLR 04/M01 A3020 RMK AO2 T00361006
KAJR 201215Z AUTO 28004KT 10SM CLR 03/M01 A3020 RMK AO2 T00331011
KAJR 201155Z AUTO 31004KT 10SM CLR 03/M01 A3020 RMK AO2 T00331014 10033 20010
KAJR 201135Z AUTO 30003KT 10SM CLR 02/M02 A3020 RMK AO2 T00241022
KAJR 201115Z AUTO 31005KT 10SM CLR 03/M02 A3020 RMK AO2 T00271025
KAJR 201055Z AUTO 32003KT 10SM CLR 02/M03 A3020 RMK AO2 T00241033
KAJR 201035Z AUTO 32003KT 10SM CLR 02/M04 A3019 RMK AO2 T00231038
KAJR 201015Z AUTO 32003KT 10SM CLR 02/M04 A3019 RMK AO2 T00221042
KAJR 200955Z AUTO 31005KT 10SM CLR 03/M04 A3019 RMK AO2 T00261044
KAJR 200935Z AUTO 31005KT 10SM CLR 02/M05 A3020 RMK AO2 T00201052
KAJR 200915Z AUTO 29006KT 10SM CLR 02/M06 A3019 RMK AO2 T00201059
KAJR 200855Z AUTO 30004KT 10SM CLR 02/M07 A3019 RMK AO2 T00201070
KAJR 200835Z AUTO 31005KT 10SM CLR 02/M08 A3019 RMK AO2 T00221079
KAJR 200815Z AUTO 30006KT 10SM CLR 02/M09 A3019 RMK AO2 T00211090
KAJR 200755Z AUTO 30005KT 10SM CLR 02/M10 A3019 RMK AO2 T00201101
KAJR 200735Z AUTO 30004KT 10SM CLR 02/M10 A3019 RMK AO2 T00221105
KAJR 200715Z AUTO 31007KT 10SM CLR 02/M11 A3019 RMK AO2 T00231111
KAJR 200655Z AUTO 30005KT 10SM CLR 02/M12 A3019 RMK AO2 T00171124
KAJR 200635Z AUTO 30005KT 10SM CLR 01/M12 A3019 RMK AO2 T00141125
KAJR 200615Z AUTO 29006KT 10SM CLR 02/M13 A3019 RMK AO2 T00151126
KAJR 200555Z AUTO 00000KT 10SM CLR 02/M13 A3020 RMK AO2 T00151131 10067 20013 401461044
KAJR 200535Z AUTO 31003KT 10SM CLR 02/M13 A3019 RMK AO2 T00211131
KAJR 200515Z AUTO 29003KT 10SM CLR 02/M13 A3020 RMK AO2 T00181130
KAJR 200455Z AUTO 00000KT 10SM CLR 02/M13 A3021 RMK AO2 T00201130
KAJR 200435Z AUTO 30004KT 10SM CLR 02/M13 A3021 RMK AO2 T00221128
KAJR 200415Z AUTO 25006KT 10SM CLR 02/M12 A3021 RMK AO2 T00191125
KAJR 200355Z AUTO 24004KT 10SM CLR 03/M13 A3020 RMK AO2 T00261132
KAJR 200335Z AUTO 26003KT 10SM CLR 03/M13 A3020 RMK AO2 T00271132
KAJR 200315Z AUTO 28005KT 10SM CLR 03/M13 A3020 RMK AO2 T00301133
KAJR 200255Z AUTO 27006KT 10SM CLR 03/M13 A3020 RMK AO2 T00301132
KAJR 200235Z AUTO 25011KT 10SM CLR 03/M13 A3019 RMK AO2 T00291128
KAJR 200215Z AUTO 22004KT 10SM CLR 03/M14 A3018 RMK AO2 T00301144
KAJR 200155Z AUTO 00000KT 10SM CLR 03/M14 A3017 RMK AO2 T00341145
KAJR 200135Z AUTO 00000KT 10SM CLR 05/M15 A3017 RMK AO2 T00481150
KAJR 200115Z AUTO 26004KT 10SM CLR 05/M14 A3018 RMK AO2 T00451143
KAJR 200055Z AUTO 26006KT 10SM CLR 05/M14 A3018 RMK AO2 T00471144
KAJR 200035Z AUTO 26004KT 10SM CLR 06/M16 A3019 RMK AO2 T00611158
KAJR 200015Z AUTO 28003KT 10SM CLR 06/M16 A3019 RMK AO2 T00641156
KAJR 192355Z AUTO 27006KT 10SM CLR 07/M14 A3019 RMK AO2 T00671145 10146 20065
KAJR 192335Z AUTO 26007KT 10SM CLR 07/M14 A3018 RMK AO2 T00721145
KAJR 192315Z AUTO 24003KT 10SM CLR 09/M15 A3018 RMK AO2 T00871152
KAJR 192255Z AUTO 26003KT 10SM CLR 09/M15 A3018 RMK AO2 T00941150
KAJR 192235Z AUTO 25005KT 10SM CLR 10/M14 A3018 RMK AO2 T01041142
KAJR 192215Z AUTO 23005KT 10SM CLR 11/M14 A3018 RMK AO2 T01141138
KAJR 192155Z AUTO 23006KT 10SM CLR 13/M13 A3018 RMK AO2 T01261135
KAJR 192135Z AUTO 24010KT 10SM CLR 14/M14 A3018 RMK AO2 T01361136
KAJR 192115Z AUTO 29006KT 10SM CLR 14/M17 A3018 RMK AO2 T01411170
KAJR 192055Z AUTO 29009G14KT 10SM CLR 14/M17 A3017 RMK AO2 T01431174
KAJR 192035Z AUTO 28010KT 10SM CLR 14/M18 A3017 RMK AO2 T01421176
KAJR 192015Z AUTO 29006G09KT 10SM CLR 14/M17 A3018 RMK AO2 T01441169
KAJR 191955Z AUTO 28005KT 10SM CLR 14/M16 A3018 RMK AO2 T01421161
KAJR 191935Z AUTO 29005KT 10SM CLR 14/M16 A3018 RMK AO2 T01421159
KAJR 191915Z AUTO 27006KT 10SM CLR 14/M15 A3018 RMK AO2 T01381152
KAJR 191855Z AUTO 30007KT 10SM CLR 13/M16 A3019 RMK AO2 T01341162
KAJR 191835Z AUTO 27005KT 10SM CLR 13/M17 A3019 RMK AO2 T01291166
KAJR 191815Z AUTO 27007KT 10SM CLR 13/M17 A3020 RMK AO2 T01261166
KAJR 191755Z AUTO 28005KT 10SM CLR 12/M17 A3021 RMK AO2 T01241168 10128 21016
KAJR 191735Z AUTO 31006KT 10SM CLR 12/M17 A3022 RMK AO2 T01191168
KAJR 191715Z AUTO 27006KT 10SM CLR 11/M17 A3023 RMK AO2 T01121169
KAJR 191655Z AUTO 27006KT 10SM CLR 11/M17 A3024 RMK AO2 T01061171
KAJR 191635Z AUTO 31006KT 10SM CLR 11/M17 A3024 RMK AO2 T01071174
KAJR 191615Z AUTO 30006KT 10SM CLR 10/M16 A3024 RMK AO2 T01001159
KAJR 191555Z AUTO 36006KT 10SM CLR 09/M17 A3024 RMK AO2 T00871171
KAJR 191535Z AUTO 32005KT 10SM CLR 08/M15 A3025 RMK AO2 T00781155
KAJR 191515Z AUTO 32005KT 10SM CLR 07/M14 A3024 RMK AO2 T00651138
KAJR 191455Z AUTO 33005KT 10SM CLR 05/M13 A3024 RMK AO2 T00451130